createdAt,value
2022-07-31T00:00:34.018Z,1.38
2022-07-31T00:03:01.956Z,0.80
2022-07-31T00:05:30.964Z,1.30
2022-07-31T00:07:59.154Z,1.15
2022-07-31T00:10:27.076Z,1.30
2022-07-31T00:12:56.288Z,1.83
2022-07-31T00:15:24.706Z,1.52
2022-07-31T00:17:52.666Z,1.50
2022-07-31T00:20:20.700Z,1.13
2022-07-31T00:22:49.308Z,1.38
2022-07-31T00:25:18.766Z,1.55
2022-07-31T00:27:46.867Z,1.40
2022-07-31T00:30:17.436Z,1.50
2022-07-31T00:32:45.993Z,1.20
2022-07-31T00:35:14.769Z,1.42
2022-07-31T00:37:43.109Z,1.98
2022-07-31T00:40:13.433Z,2.03
2022-07-31T00:42:41.393Z,1.90
2022-07-31T00:45:10.660Z,2.03
2022-07-31T00:47:43.567Z,2.28
2022-07-31T00:50:12.705Z,1.50
2022-07-31T00:52:41.000Z,1.73
2022-07-31T00:55:09.850Z,2.10
2022-07-31T00:57:38.173Z,2.10
2022-07-31T01:00:08.002Z,1.70
2022-07-31T01:02:36.969Z,1.95
2022-07-31T01:05:07.479Z,1.50
2022-07-31T01:07:35.217Z,1.65
2022-07-31T01:10:09.330Z,1.20
2022-07-31T01:12:43.931Z,1.30
2022-07-31T01:15:15.512Z,1.00
2022-07-31T01:17:47.751Z,1.30
2022-07-31T01:20:17.851Z,1.50
2022-07-31T01:23:14.903Z,1.10
2022-07-31T01:25:54.521Z,1.20
2022-07-31T01:28:34.141Z,1.45
2022-07-31T01:31:25.920Z,1.20
2022-07-31T01:34:00.863Z,1.40
2022-07-31T01:36:35.356Z,1.23
2022-07-31T01:39:04.648Z,1.17
2022-07-31T01:41:38.970Z,1.23
2022-07-31T01:44:13.722Z,1.40
2022-07-31T01:46:46.038Z,1.30
2022-07-31T01:49:15.318Z,1.23
2022-07-31T01:51:45.114Z,1.13
2022-07-31T01:54:14.135Z,1.60
2022-07-31T01:56:43.006Z,1.00
2022-07-31T01:59:20.174Z,1.50
2022-07-31T02:01:52.802Z,1.25
2022-07-31T02:04:22.591Z,1.20
2022-07-31T02:06:51.598Z,1.00
2022-07-31T02:09:21.009Z,1.17
2022-07-31T02:11:54.676Z,1.10
2022-07-31T02:14:24.209Z,1.15
2022-07-31T02:16:53.547Z,1.17
2022-07-31T02:19:23.341Z,1.00
2022-07-31T02:21:51.607Z,1.27
2022-07-31T02:24:19.761Z,0.88
2022-07-31T02:26:49.242Z,1.30
2022-07-31T02:29:20.340Z,1.08
2022-07-31T02:32:03.243Z,1.42
2022-07-31T02:34:40.462Z,1.77
2022-07-31T02:37:09.911Z,1.00
2022-07-31T02:39:39.107Z,1.00
2022-07-31T02:42:09.997Z,1.10
2022-07-31T02:44:39.758Z,1.33
2022-07-31T02:47:08.309Z,1.10
2022-07-31T02:49:36.371Z,1.15
2022-07-31T02:52:07.263Z,0.85
2022-07-31T02:54:39.563Z,1.15
2022-07-31T02:57:08.268Z,1.40
2022-07-31T02:59:38.573Z,0.93
2022-07-31T03:02:07.413Z,0.95
2022-07-31T03:04:35.805Z,1.02
2022-07-31T03:07:04.865Z,1.27
2022-07-31T03:09:34.002Z,1.05
2022-07-31T03:12:05.017Z,1.10
2022-07-31T03:14:34.534Z,0.90
2022-07-31T03:17:02.834Z,1.00
2022-07-31T03:19:32.553Z,0.90
2022-07-31T03:22:01.208Z,1.35
2022-07-31T03:24:29.909Z,1.17
2022-07-31T03:27:00.111Z,1.00
2022-07-31T03:29:41.791Z,1.05
2022-07-31T03:32:12.546Z,1.20
2022-07-31T03:34:40.501Z,1.20
2022-07-31T03:37:08.596Z,0.90
2022-07-31T03:39:36.322Z,1.25
2022-07-31T03:42:06.282Z,1.48
2022-07-31T03:44:42.419Z,0.88
2022-07-31T03:47:10.509Z,1.40
2022-07-31T03:49:38.846Z,1.27
2022-07-31T03:52:11.695Z,0.90
2022-07-31T03:54:40.421Z,1.40
2022-07-31T03:57:10.867Z,1.30
2022-07-31T03:59:48.405Z,1.40
2022-07-31T04:02:18.661Z,1.20
2022-07-31T04:04:47.299Z,1.42
2022-07-31T04:07:15.070Z,1.15
2022-07-31T04:09:42.827Z,1.40
2022-07-31T04:12:12.557Z,1.30
2022-07-31T04:14:40.350Z,1.33
2022-07-31T04:17:08.051Z,2.28
2022-07-31T04:19:36.044Z,1.13
2022-07-31T04:22:04.659Z,1.10
2022-07-31T04:24:32.954Z,1.10
2022-07-31T04:27:00.696Z,1.45
2022-07-31T04:29:29.839Z,1.20
2022-07-31T04:31:57.945Z,1.40
2022-07-31T04:34:25.786Z,1.13
2022-07-31T04:36:53.596Z,2.03
2022-07-31T04:39:22.108Z,1.60
2022-07-31T04:41:49.821Z,1.50
2022-07-31T04:44:17.577Z,1.63
2022-07-31T04:46:46.894Z,1.20
2022-07-31T04:49:15.280Z,1.60
2022-07-31T04:51:44.005Z,1.70
2022-07-31T04:54:12.434Z,1.58
2022-07-31T04:56:43.381Z,1.80
2022-07-31T04:59:12.714Z,1.80
2022-07-31T05:01:43.254Z,1.95
2022-07-31T05:04:12.650Z,1.60
2022-07-31T05:06:42.414Z,2.05
2022-07-31T05:09:18.467Z,2.60
2022-07-31T05:11:48.355Z,1.90
2022-07-31T05:14:18.109Z,2.35
2022-07-31T05:16:46.256Z,1.92
2022-07-31T05:19:15.974Z,2.72
2022-07-31T05:21:54.040Z,2.05
2022-07-31T05:24:32.959Z,2.25
2022-07-31T05:27:01.951Z,2.42
2022-07-31T05:29:30.165Z,2.60
2022-07-31T05:32:09.715Z,2.40
2022-07-31T05:34:39.185Z,2.80
2022-07-31T05:37:06.906Z,2.22
2022-07-31T05:39:34.683Z,2.63
2022-07-31T05:42:03.127Z,1.88
2022-07-31T05:44:30.995Z,2.45
2022-07-31T05:49:29.184Z,2.40
2022-07-31T05:51:58.290Z,2.60
2022-07-31T05:54:26.106Z,2.63
2022-07-31T05:56:54.122Z,2.22
2022-07-31T05:59:23.864Z,2.45
2022-07-31T06:01:51.851Z,2.70
2022-07-31T06:04:19.706Z,2.63
2022-07-31T06:06:47.449Z,2.92
2022-07-31T06:09:16.759Z,2.85
2022-07-31T06:11:44.454Z,3.28
2022-07-31T06:14:12.427Z,3.47
2022-07-31T06:16:40.122Z,4.10
2022-07-31T06:19:07.851Z,3.47
2022-07-31T06:21:35.808Z,3.05
2022-07-31T06:24:03.536Z,3.28
2022-07-31T06:26:32.914Z,3.65
2022-07-31T06:29:00.624Z,4.05
2022-07-31T06:31:28.351Z,4.50
2022-07-31T06:33:56.557Z,4.53
2022-07-31T06:36:24.266Z,4.20
2022-07-31T06:38:52.212Z,4.47
2022-07-31T06:41:34.662Z,4.53
2022-07-31T06:44:04.078Z,3.80
2022-07-31T06:46:31.843Z,3.92
2022-07-31T06:48:59.623Z,4.13
2022-07-31T06:51:31.931Z,3.67
2022-07-31T06:54:00.695Z,4.47
2022-07-31T06:56:29.096Z,3.72
2022-07-31T06:58:57.278Z,3.72
2022-07-31T07:01:26.466Z,3.58
2022-07-31T07:03:54.934Z,4.03
2022-07-31T07:06:23.326Z,3.85
2022-07-31T07:08:51.806Z,3.47
2022-07-31T07:11:20.386Z,3.15
2022-07-31T07:13:48.656Z,3.20
2022-07-31T07:16:16.697Z,3.53
2022-07-31T07:18:45.911Z,3.30
2022-07-31T07:21:14.029Z,3.65
2022-07-31T07:23:42.757Z,3.75
2022-07-31T07:26:10.753Z,3.42
2022-07-31T07:28:39.810Z,3.45
2022-07-31T07:31:07.750Z,2.67
2022-07-31T07:33:41.354Z,3.40
2022-07-31T07:36:23.520Z,3.08
2022-07-31T07:38:55.060Z,2.75
2022-07-31T07:41:24.126Z,3.03
2022-07-31T07:43:52.917Z,3.08
2022-07-31T07:46:21.560Z,2.83
2022-07-31T07:48:51.298Z,2.97
2022-07-31T07:51:20.805Z,2.78
2022-07-31T07:53:48.752Z,2.65
2022-07-31T07:56:16.997Z,2.35
2022-07-31T07:58:44.822Z,2.38
2022-07-31T08:01:12.775Z,2.47
2022-07-31T08:03:49.172Z,2.35
2022-07-31T08:06:18.630Z,2.33
2022-07-31T08:08:47.781Z,2.22
2022-07-31T08:11:17.037Z,2.10
2022-07-31T08:13:50.051Z,2.67
2022-07-31T08:16:20.498Z,2.05
2022-07-31T08:18:48.842Z,2.17
2022-07-31T08:21:16.883Z,2.70
2022-07-31T08:23:44.670Z,2.53
2022-07-31T08:26:14.213Z,2.45
2022-07-31T08:28:50.682Z,2.65
2022-07-31T08:31:19.815Z,2.28
2022-07-31T08:33:47.667Z,2.67
2022-07-31T08:36:15.674Z,2.65
2022-07-31T08:38:43.418Z,2.90
2022-07-31T08:41:15.751Z,2.97
2022-07-31T08:44:01.862Z,2.30
2022-07-31T08:46:33.565Z,2.63
2022-07-31T08:49:03.670Z,2.80
2022-07-31T08:51:51.029Z,2.42
2022-07-31T08:54:20.736Z,2.38
2022-07-31T08:56:52.780Z,2.42
2022-07-31T08:59:21.863Z,2.63
2022-07-31T09:01:51.424Z,2.47
2022-07-31T09:04:19.415Z,2.80
2022-07-31T09:06:47.110Z,2.35
2022-07-31T09:09:16.699Z,2.55
2022-07-31T09:11:49.712Z,3.00
2022-07-31T09:14:27.873Z,2.75
2022-07-31T09:16:58.363Z,2.78
2022-07-31T09:19:53.556Z,2.40
2022-07-31T09:22:23.316Z,2.63
2022-07-31T09:24:51.894Z,2.63
2022-07-31T09:27:21.526Z,2.90
2022-07-31T09:29:49.752Z,2.58
2022-07-31T09:32:19.483Z,2.78
2022-07-31T09:34:48.665Z,2.78
2022-07-31T09:37:18.398Z,2.88
2022-07-31T09:39:52.786Z,3.15
2022-07-31T09:42:23.572Z,3.15
2022-07-31T09:44:52.480Z,2.90
2022-07-31T09:47:24.416Z,2.88
2022-07-31T09:49:56.350Z,3.00
2022-07-31T09:52:24.194Z,3.33
2022-07-31T09:55:02.509Z,3.03
2022-07-31T09:57:52.863Z,2.97
2022-07-31T10:00:21.137Z,2.83
2022-07-31T10:02:49.594Z,2.65
2022-07-31T10:05:18.685Z,3.45
2022-07-31T10:07:48.183Z,3.35
2022-07-31T10:10:16.891Z,3.45
2022-07-31T10:12:50.957Z,3.40
2022-07-31T10:15:20.969Z,3.25
2022-07-31T10:17:53.051Z,3.05
2022-07-31T10:20:22.729Z,3.60
2022-07-31T10:22:54.702Z,3.00
2022-07-31T10:25:25.994Z,3.20
2022-07-31T10:27:57.180Z,3.35
2022-07-31T10:30:28.072Z,3.30
2022-07-31T10:32:56.490Z,3.47
2022-07-31T10:35:24.649Z,3.30
2022-07-31T10:37:59.343Z,2.95
2022-07-31T10:40:34.137Z,3.00
2022-07-31T10:43:19.141Z,3.10
2022-07-31T10:45:49.638Z,3.38
2022-07-31T10:48:17.463Z,3.17
2022-07-31T10:50:46.132Z,3.17
2022-07-31T10:53:15.724Z,3.53
2022-07-31T10:55:44.399Z,3.60
2022-07-31T10:58:15.862Z,2.78
2022-07-31T11:00:45.275Z,3.53
2022-07-31T11:03:15.266Z,3.00
2022-07-31T11:06:02.060Z,3.25
2022-07-31T11:08:42.113Z,2.75
2022-07-31T11:11:10.485Z,3.00
2022-07-31T11:13:50.383Z,2.95
2022-07-31T11:16:19.414Z,2.67
2022-07-31T11:18:58.661Z,2.78
2022-07-31T11:21:39.339Z,3.13
2022-07-31T11:24:16.550Z,2.92
2022-07-31T11:26:50.651Z,2.03
2022-07-31T11:30:01.876Z,2.65
2022-07-31T11:32:22.966Z,2.28
2022-07-31T11:34:56.766Z,2.75
2022-07-31T11:37:46.072Z,2.38
2022-07-31T11:40:16.798Z,2.50
2022-07-31T11:42:47.085Z,2.72
2022-07-31T11:45:22.042Z,2.25
2022-07-31T11:48:11.407Z,2.55
2022-07-31T11:50:42.798Z,2.03
2022-07-31T11:53:10.789Z,2.28
2022-07-31T11:55:52.743Z,1.90
2022-07-31T11:58:23.441Z,2.10
2022-07-31T12:00:55.684Z,2.03
2022-07-31T12:03:26.577Z,2.20
2022-07-31T12:05:54.713Z,2.25
2022-07-31T12:08:24.453Z,1.90
2022-07-31T12:10:54.719Z,1.77
2022-07-31T12:13:24.407Z,2.00
2022-07-31T12:16:01.453Z,1.85
2022-07-31T12:18:31.430Z,1.95
2022-07-31T12:21:03.333Z,1.77
2022-07-31T12:23:42.199Z,1.42
2022-07-31T12:26:12.987Z,1.83
2022-07-31T12:28:41.948Z,1.65
2022-07-31T12:31:11.357Z,1.27
2022-07-31T12:33:44.479Z,1.05
2022-07-31T12:36:17.547Z,1.48
2022-07-31T12:38:48.344Z,1.40
2022-07-31T12:41:17.655Z,1.70
2022-07-31T12:43:50.984Z,1.15
2022-07-31T12:46:22.827Z,1.60
2022-07-31T12:48:51.156Z,1.00
2022-07-31T12:51:44.107Z,1.35
2022-07-31T12:54:10.470Z,1.02
2022-07-31T12:56:39.806Z,1.25
2022-07-31T12:59:08.733Z,0.80
2022-07-31T13:01:38.376Z,0.93
2022-07-31T13:04:08.098Z,0.80
2022-07-31T13:06:48.974Z,0.90
2022-07-31T13:09:17.052Z,0.80
2022-07-31T13:11:46.443Z,0.90
2022-07-31T13:14:16.431Z,0.85
2022-07-31T13:16:46.615Z,0.90
2022-07-31T13:19:15.022Z,0.75
2022-07-31T13:21:48.391Z,1.27
2022-07-31T13:24:19.046Z,1.20
2022-07-31T13:26:47.740Z,1.05
